sensor_id;sensor_type;location;lat;lon;timestamp;pressure;altitude;pressure_sealevel;temperature;humidity
71392;BME280;59205;50.610;12.638;2022-11-11T00:01:24;96953.84;;;6.84;100.00
71392;BME280;59205;50.610;12.638;2022-11-11T00:03:53;96955.66;;;6.94;99.30
71392;BME280;59205;50.610;12.638;2022-11-11T00:06:19;96961.03;;;6.94;99.39
71392;BME280;59205;50.610;12.638;2022-11-11T00:08:46;96955.75;;;6.83;99.58
71392;BME280;59205;50.610;12.638;2022-11-11T00:11:12;96957.25;;;6.88;99.52
71392;BME280;59205;50.610;12.638;2022-11-11T00:13:40;96967.09;;;6.68;100.00
71392;BME280;59205;50.610;12.638;2022-11-11T00:16:15;96969.34;;;6.73;100.00
71392;BME280;59205;50.610;12.638;2022-11-11T00:18:41;96970.13;;;6.73;100.00
71392;BME280;59205;50.610;12.638;2022-11-11T00:21:25;96979.31;;;6.76;100.00
71392;BME280;59205;50.610;12.638;2022-11-11T00:24:28;96986.97;;;6.81;99.66
71392;BME280;59205;50.610;12.638;2022-11-11T00:27:13;96982.25;;;6.88;99.17
71392;BME280;59205;50.610;12.638;2022-11-11T00:29:39;96981.47;;;6.91;98.51
71392;BME280;59205;50.610;12.638;2022-11-11T00:32:06;96984.59;;;6.86;98.56
71392;BME280;59205;50.610;12.638;2022-11-11T00:34:50;96980.09;;;6.76;98.39
71392;BME280;59205;50.610;12.638;2022-11-11T00:37:35;96998.94;;;6.76;98.71
71392;BME280;59205;50.610;12.638;2022-11-11T00:40:00;96996.19;;;6.80;99.12
71392;BME280;59205;50.610;12.638;2022-11-11T00:42:26;97002.81;;;6.72;99.87
71392;BME280;59205;50.610;12.638;2022-11-11T00:44:52;97003.78;;;6.52;100.00
71392;BME280;59205;50.610;12.638;2022-11-11T00:47:17;97002.72;;;6.42;100.00
71392;BME280;59205;50.610;12.638;2022-11-11T00:50:03;97015.09;;;6.33;100.00
71392;BME280;59205;50.610;12.638;2022-11-11T00:52:47;97014.75;;;6.24;100.00
71392;BME280;59205;50.610;12.638;2022-11-11T00:55:13;97026.69;;;6.23;100.00
71392;BME280;59205;50.610;12.638;2022-11-11T00:57:39;97016.25;;;6.32;100.00
71392;BME280;59205;50.610;12.638;2022-11-11T01:00:05;97016.28;;;6.28;100.00
71392;BME280;59205;50.610;12.638;2022-11-11T01:02:30;97015.56;;;6.21;100.00
71392;BME280;59205;50.610;12.638;2022-11-11T01:04:56;97015.91;;;6.26;100.00
71392;BME280;59205;50.610;12.638;2022-11-11T01:07:21;97007.81;;;6.30;100.00
71392;BME280;59205;50.610;12.638;2022-11-11T01:09:47;97010.53;;;6.26;100.00
71392;BME280;59205;50.610;12.638;2022-11-11T01:12:12;97019.34;;;6.27;100.00
71392;BME280;59205;50.610;12.638;2022-11-11T01:14:38;97010.88;;;6.28;100.00
71392;BME280;59205;50.610;12.638;2022-11-11T01:17:03;97018.28;;;6.17;100.00
71392;BME280;59205;50.610;12.638;2022-11-11T01:19:30;97020.22;;;6.13;100.00
71392;BME280;59205;50.610;12.638;2022-11-11T01:21:56;97018.38;;;6.00;100.00
71392;BME280;59205;50.610;12.638;2022-11-11T01:24:22;97018.75;;;6.02;100.00
71392;BME280;59205;50.610;12.638;2022-11-11T01:26:47;97013.41;;;5.98;100.00
71392;BME280;59205;50.610;12.638;2022-11-11T01:29:12;97020.75;;;5.91;100.00
71392;BME280;59205;50.610;12.638;2022-11-11T01:31:38;97013.44;;;5.95;100.00
71392;BME280;59205;50.610;12.638;2022-11-11T01:34:04;97029.56;;;5.91;100.00
71392;BME280;59205;50.610;12.638;2022-11-11T01:36:29;97031.09;;;5.92;100.00
71392;BME280;59205;50.610;12.638;2022-11-11T01:38:57;97036.13;;;5.90;100.00
71392;BME280;59205;50.610;12.638;2022-11-11T01:41:26;97018.50;;;5.86;100.00
71392;BME280;59205;50.610;12.638;2022-11-11T01:47:04;97011.19;;;5.83;100.00
71392;BME280;59205;50.610;12.638;2022-11-11T01:49:50;97005.34;;;5.95;100.00
71392;BME280;59205;50.610;12.638;2022-11-11T01:52:23;97011.91;;;5.94;100.00
71392;BME280;59205;50.610;12.638;2022-11-11T02:00:05;97020.34;;;5.96;100.00
71392;BME280;59205;50.610;12.638;2022-11-11T02:02:47;97015.75;;;5.89;100.00
71392;BME280;59205;50.610;12.638;2022-11-11T02:05:15;97014.97;;;5.96;100.00
71392;BME280;59205;50.610;12.638;2022-11-11T02:08:18;97014.91;;;6.03;100.00
71392;BME280;59205;50.610;12.638;2022-11-11T02:13:28;97022.91;;;6.17;100.00
71392;BME280;59205;50.610;12.638;2022-11-11T02:16:13;97024.41;;;6.21;100.00
71392;BME280;59205;50.610;12.638;2022-11-11T02:18:39;97024.00;;;6.23;100.00
71392;BME280;59205;50.610;12.638;2022-11-11T02:21:05;97019.41;;;6.20;100.00
71392;BME280;59205;50.610;12.638;2022-11-11T02:26:20;97020.41;;;6.40;100.00
71392;BME280;59205;50.610;12.638;2022-11-11T02:28:46;97015.13;;;6.26;100.00
71392;BME280;59205;50.610;12.638;2022-11-11T02:31:11;97016.28;;;6.25;100.00
71392;BME280;59205;50.610;12.638;2022-11-11T02:33:37;97018.25;;;6.21;100.00
71392;BME280;59205;50.610;12.638;2022-11-11T02:36:03;97016.28;;;6.25;100.00
71392;BME280;59205;50.610;12.638;2022-11-11T02:38:30;97016.56;;;6.37;100.00
71392;BME280;59205;50.610;12.638;2022-11-11T02:40:56;97020.16;;;6.24;100.00
71392;BME280;59205;50.610;12.638;2022-11-11T02:43:40;97016.56;;;6.37;100.00
71392;BME280;59205;50.610;12.638;2022-11-11T02:46:06;97008.94;;;6.32;100.00
71392;BME280;59205;50.610;12.638;2022-11-11T02:48:32;97013.19;;;6.30;100.00
71392;BME280;59205;50.610;12.638;2022-11-11T02:50:57;97019.75;;;6.29;100.00
71392;BME280;59205;50.610;12.638;2022-11-11T02:53:23;97020.06;;;6.34;100.00
71392;BME280;59205;50.610;12.638;2022-11-11T02:55:48;97007.38;;;6.35;100.00
71392;BME280;59205;50.610;12.638;2022-11-11T02:58:15;97012.34;;;6.36;100.00
71392;BME280;59205;50.610;12.638;2022-11-11T03:00:41;97016.25;;;6.32;100.00
71392;BME280;59205;50.610;12.638;2022-11-11T03:03:07;97009.28;;;6.38;100.00
71392;BME280;59205;50.610;12.638;2022-11-11T03:05:33;97010.50;;;6.30;100.00
71392;BME280;59205;50.610;12.638;2022-11-11T03:07:58;97012.00;;;6.34;100.00
71392;BME280;59205;50.610;12.638;2022-11-11T03:10:24;97007.75;;;6.37;100.00
71392;BME280;59205;50.610;12.638;2022-11-11T03:12:49;97007.38;;;6.35;100.00
71392;BME280;59205;50.610;12.638;2022-11-11T03:15:15;97010.44;;;6.37;100.00
71392;BME280;59205;50.610;12.638;2022-11-11T03:17:40;97008.56;;;6.34;100.00
71392;BME280;59205;50.610;12.638;2022-11-11T03:20:07;97020.44;;;6.36;100.00
71392;BME280;59205;50.610;12.638;2022-11-11T03:23:06;97011.25;;;6.34;100.00
71392;BME280;59205;50.610;12.638;2022-11-11T03:25:32;97017.28;;;6.45;100.00
71392;BME280;59205;50.610;12.638;2022-11-11T03:30:41;97021.47;;;6.53;99.51
71392;BME280;59205;50.610;12.638;2022-11-11T03:33:07;97024.53;;;6.55;99.03
71392;BME280;59205;50.610;12.638;2022-11-11T03:35:33;97030.72;;;6.52;98.92
71392;BME280;59205;50.610;12.638;2022-11-11T03:37:59;97033.50;;;6.41;99.45
71392;BME280;59205;50.610;12.638;2022-11-11T03:40:42;97035.47;;;6.34;99.77
71392;BME280;59205;50.610;12.638;2022-11-11T03:43:08;97035.38;;;6.44;99.16
71392;BME280;59205;50.610;12.638;2022-11-11T03:45:34;97037.06;;;6.28;99.72
71392;BME280;59205;50.610;12.638;2022-11-11T03:47:59;97043.63;;;6.16;100.00
71392;BME280;59205;50.610;12.638;2022-11-11T03:50:25;97051.38;;;6.11;100.00
71392;BME280;59205;50.610;12.638;2022-11-11T03:52:50;97052.59;;;5.99;100.00
71392;BME280;59205;50.610;12.638;2022-11-11T03:55:15;97045.63;;;6.09;100.00
71392;BME280;59205;50.610;12.638;2022-11-11T03:57:43;97053.72;;;6.02;100.00
71392;BME280;59205;50.610;12.638;2022-11-11T04:00:10;97047.22;;;5.99;100.00
71392;BME280;59205;50.610;12.638;2022-11-11T04:02:36;97044.97;;;5.87;100.00
71392;BME280;59205;50.610;12.638;2022-11-11T04:05:20;97045.63;;;6.09;100.00
71392;BME280;59205;50.610;12.638;2022-11-11T04:08:04;97038.53;;;6.32;100.00
71392;BME280;59205;50.610;12.638;2022-11-11T04:10:48;97046.16;;;6.41;98.88
71392;BME280;59205;50.610;12.638;2022-11-11T04:13:13;97044.25;;;6.41;99.05
71392;BME280;59205;50.610;12.638;2022-11-11T04:15:57;97050.53;;;6.24;99.10
71392;BME280;59205;50.610;12.638;2022-11-11T04:18:36;97054.75;;;6.22;99.57
71392;BME280;59205;50.610;12.638;2022-11-11T04:21:22;97059.47;;;6.07;100.00
71392;BME280;59205;50.610;12.638;2022-11-11T04:24:07;97055.97;;;6.14;100.00
71392;BME280;59205;50.610;12.638;2022-11-11T04:26:53;97057.06;;;6.23;99.37
71392;BME280;59205;50.610;12.638;2022-11-11T04:29:18;97042.88;;;6.16;99.80
71392;BME280;59205;50.610;12.638;2022-11-11T04:32:10;97049.06;;;6.13;99.67
71392;BME280;59205;50.610;12.638;2022-11-11T04:34:59;97048.59;;;6.25;99.20
71392;BME280;59205;50.610;12.638;2022-11-11T04:37:27;97040.50;;;6.25;99.12
71392;BME280;59205;50.610;12.638;2022-11-11T04:39:54;97042.09;;;6.19;99.12
71392;BME280;59205;50.610;12.638;2022-11-11T04:42:38;97039.75;;;6.28;98.35
71392;BME280;59205;50.610;12.638;2022-11-11T04:45:07;97047.44;;;6.26;98.28
71392;BME280;59205;50.610;12.638;2022-11-11T04:47:59;97044.00;;;6.22;98.75
71392;BME280;59205;50.610;12.638;2022-11-11T04:50:34;97034.41;;;6.21;98.61
71392;BME280;59205;50.610;12.638;2022-11-11T04:53:01;97037.44;;;6.23;98.53
71392;BME280;59205;50.610;12.638;2022-11-11T04:55:27;97041.00;;;6.09;98.66
71392;BME280;59205;50.610;12.638;2022-11-11T04:58:12;97048.78;;;5.97;99.72
71392;BME280;59205;50.610;12.638;2022-11-11T05:00:38;97039.47;;;6.08;99.63
71392;BME280;59205;50.610;12.638;2022-11-11T05:03:03;97044.50;;;6.57;99.85
71392;BME280;59205;50.610;12.638;2022-11-11T05:05:42;97050.03;;;6.36;97.30
71392;BME280;59205;50.610;12.638;2022-11-11T05:08:27;97034.75;;;6.26;97.33
71392;BME280;59205;50.610;12.638;2022-11-11T05:11:11;97038.88;;;6.38;96.51
71392;BME280;59205;50.610;12.638;2022-11-11T05:13:36;97041.94;;;6.40;95.85
71392;BME280;59205;50.610;12.638;2022-11-11T05:16:32;97050.09;;;6.29;96.53
71392;BME280;59205;50.610;12.638;2022-11-11T05:19:17;97038.25;;;6.20;96.58
71392;BME280;59205;50.610;12.638;2022-11-11T05:22:07;97028.66;;;6.19;96.98
71392;BME280;59205;50.610;12.638;2022-11-11T05:24:33;97033.66;;;6.13;97.18
71392;BME280;59205;50.610;12.638;2022-11-11T05:27:17;97036.34;;;6.17;96.71
71392;BME280;59205;50.610;12.638;2022-11-11T05:29:45;97029.06;;;6.14;97.08
71392;BME280;59205;50.610;12.638;2022-11-11T05:32:15;97023.28;;;6.15;96.65
71392;BME280;59205;50.610;12.638;2022-11-11T05:34:40;97022.47;;;6.22;96.15
71392;BME280;59205;50.610;12.638;2022-11-11T05:37:06;97021.66;;;6.28;95.71
71392;BME280;59205;50.610;12.638;2022-11-11T05:39:31;97024.38;;;6.25;95.80
71392;BME280;59205;50.610;12.638;2022-11-11T05:41:57;97018.97;;;6.25;95.97
71392;BME280;59205;50.610;12.638;2022-11-11T05:44:22;97018.53;;;6.33;95.13
71392;BME280;59205;50.610;12.638;2022-11-11T05:46:47;97019.41;;;6.23;95.89
71392;BME280;59205;50.610;12.638;2022-11-11T05:49:13;97018.53;;;6.37;95.12
71392;BME280;59205;50.610;12.638;2022-11-11T05:51:44;97018.53;;;6.37;94.83
71392;BME280;59205;50.610;12.638;2022-11-11T05:54:11;97028.41;;;6.50;93.40
71392;BME280;59205;50.610;12.638;2022-11-11T05:56:37;97031.97;;;6.37;94.21
71392;BME280;59205;50.610;12.638;2022-11-11T05:59:03;97026.31;;;6.24;94.94
71392;BME280;59205;50.610;12.638;2022-11-11T06:01:29;97035.47;;;6.30;94.60
71392;BME280;59205;50.610;12.638;2022-11-11T06:03:54;97040.06;;;6.33;94.57
71392;BME280;59205;50.610;12.638;2022-11-11T06:06:20;97048.19;;;6.30;94.79
71392;BME280;59205;50.610;12.638;2022-11-11T06:08:45;97056.28;;;6.30;94.24
71392;BME280;59205;50.610;12.638;2022-11-11T06:11:11;97057.38;;;6.36;94.04
71392;BME280;59205;50.610;12.638;2022-11-11T06:13:36;97054.66;;;6.39;93.69
71392;BME280;59205;50.610;12.638;2022-11-11T06:16:02;97062.25;;;6.51;93.28
71392;BME280;59205;50.610;12.638;2022-11-11T06:18:28;97063.78;;;6.49;92.75
71392;BME280;59205;50.610;12.638;2022-11-11T06:20:58;97069.97;;;6.49;93.08
71392;BME280;59205;50.610;12.638;2022-11-11T06:23:24;97065.63;;;6.62;92.34
71392;BME280;59205;50.610;12.638;2022-11-11T06:25:50;97072.16;;;6.65;92.18
71392;BME280;59205;50.610;12.638;2022-11-11T06:28:35;97065.19;;;6.71;91.92
71392;BME280;59205;50.610;12.638;2022-11-11T06:31:01;97069.00;;;6.69;91.32
71392;BME280;59205;50.610;12.638;2022-11-11T06:33:26;97065.19;;;6.71;91.49
71392;BME280;59205;50.610;12.638;2022-11-11T06:35:52;97066.72;;;6.72;91.41
71392;BME280;59205;50.610;12.638;2022-11-11T06:38:17;97062.09;;;6.68;91.82
71392;BME280;59205;50.610;12.638;2022-11-11T06:40:44;97061.38;;;6.65;91.94
71392;BME280;59205;50.610;12.638;2022-11-11T06:43:10;97066.72;;;6.72;91.71
71392;BME280;59205;50.610;12.638;2022-11-11T06:45:36;97060.53;;;6.74;91.79
71392;BME280;59205;50.610;12.638;2022-11-11T06:48:03;97069.34;;;6.78;91.60
71392;BME280;59205;50.610;12.638;2022-11-11T06:50:29;97062.69;;;6.93;90.89
71392;BME280;59205;50.610;12.638;2022-11-11T06:52:55;97066.56;;;6.89;91.26
71392;BME280;59205;50.610;12.638;2022-11-11T06:55:20;97064.25;;;7.28;89.41
71392;BME280;59205;50.610;12.638;2022-11-11T06:57:46;97059.19;;;7.97;85.82
71392;BME280;59205;50.610;12.638;2022-11-11T07:00:12;97062.13;;;8.06;84.94
71392;BME280;59205;50.610;12.638;2022-11-11T07:02:38;97063.09;;;7.92;85.08
71392;BME280;59205;50.610;12.638;2022-11-11T07:05:04;97068.50;;;7.92;84.58
71392;BME280;59205;50.610;12.638;2022-11-11T07:07:30;97062.06;;;8.13;83.33
71392;BME280;59205;50.610;12.638;2022-11-11T07:09:55;97064.19;;;8.28;82.59
71392;BME280;59205;50.610;12.638;2022-11-11T07:12:21;97063.53;;;8.70;80.20
71392;BME280;59205;50.610;12.638;2022-11-11T07:14:47;97062.44;;;9.33;77.22
71392;BME280;59205;50.610;12.638;2022-11-11T07:17:13;97079.41;;;10.15;73.00
71392;BME280;59205;50.610;12.638;2022-11-11T07:19:38;97075.22;;;10.45;71.22
71392;BME280;59205;50.610;12.638;2022-11-11T07:22:04;97079.47;;;11.10;68.69
71392;BME280;59205;50.610;12.638;2022-11-11T07:24:30;97082.50;;;10.32;71.61
71392;BME280;59205;50.610;12.638;2022-11-11T07:26:55;97071.84;;;9.67;73.83
71392;BME280;59205;50.610;12.638;2022-11-11T07:29:21;97077.94;;;9.52;75.25
71392;BME280;59205;50.610;12.638;2022-11-11T07:31:46;97073.28;;;9.52;74.92
71392;BME280;59205;50.610;12.638;2022-11-11T07:34:12;97067.16;;;9.29;75.85
71392;BME280;59205;50.610;12.638;2022-11-11T07:36:37;97069.63;;;9.20;77.10
71392;BME280;59205;50.610;12.638;2022-11-11T07:39:03;97069.28;;;9.18;76.99
71392;BME280;59205;50.610;12.638;2022-11-11T07:41:28;97073.50;;;9.19;77.20
71392;BME280;59205;50.610;12.638;2022-11-11T07:43:53;97068.94;;;9.16;77.81
71392;BME280;59205;50.610;12.638;2022-11-11T07:46:19;97069.94;;;9.25;76.68
71392;BME280;59205;50.610;12.638;2022-11-11T07:48:44;97075.50;;;9.38;75.39
71392;BME280;59205;50.610;12.638;2022-11-11T07:51:10;97067.03;;;9.36;75.51
71392;BME280;59205;50.610;12.638;2022-11-11T07:53:35;97075.97;;;9.52;75.04
71392;BME280;59205;50.610;12.638;2022-11-11T07:56:01;97081.75;;;9.54;74.81
71392;BME280;59205;50.610;12.638;2022-11-11T07:58:27;97081.41;;;9.72;74.07
71392;BME280;59205;50.610;12.638;2022-11-11T08:00:53;97083.78;;;9.70;73.86
71392;BME280;59205;50.610;12.638;2022-11-11T08:03:18;97077.00;;;9.97;72.79
71392;BME280;59205;50.610;12.638;2022-11-11T08:05:44;97086.34;;;9.77;73.38
71392;BME280;59205;50.610;12.638;2022-11-11T08:08:09;97085.66;;;9.73;72.71
71392;BME280;59205;50.610;12.638;2022-11-11T08:10:35;97096.19;;;9.87;72.03
71392;BME280;59205;50.610;12.638;2022-11-11T08:13:01;97103.56;;;10.06;71.22
71392;BME280;59205;50.610;12.638;2022-11-11T08:15:46;97101.31;;;10.01;72.10
71392;BME280;59205;50.610;12.638;2022-11-11T08:18:11;97108.41;;;9.95;71.64
71392;BME280;59205;50.610;12.638;2022-11-11T08:20:37;97110.00;;;9.92;72.45
71392;BME280;59205;50.610;12.638;2022-11-11T08:23:03;97105.78;;;9.91;72.22
71392;BME280;59205;50.610;12.638;2022-11-11T08:25:30;97108.75;;;9.97;71.87
71392;BME280;59205;50.610;12.638;2022-11-11T08:28:00;97104.41;;;10.03;71.07
71392;BME280;59205;50.610;12.638;2022-11-11T08:30:27;97112.53;;;10.03;70.93
71392;BME280;59205;50.610;12.638;2022-11-11T08:32:59;97119.69;;;10.13;71.04
71392;BME280;59205;50.610;12.638;2022-11-11T08:35:25;97125.63;;;10.23;70.36
71392;BME280;59205;50.610;12.638;2022-11-11T08:37:52;97129.25;;;10.36;69.39
71392;BME280;59205;50.610;12.638;2022-11-11T08:40:18;97130.50;;;10.32;69.96
71392;BME280;59205;50.610;12.638;2022-11-11T08:42:44;97136.63;;;10.52;69.36
71392;BME280;59205;50.610;12.638;2022-11-11T08:45:09;97142.81;;;10.88;67.70
71392;BME280;59205;50.610;12.638;2022-11-11T08:47:35;97150.06;;;10.75;68.28
71392;BME280;59205;50.610;12.638;2022-11-11T08:50:02;97155.75;;;10.80;67.70
71392;BME280;59205;50.610;12.638;2022-11-11T08:52:27;97149.50;;;10.99;67.66
71392;BME280;59205;50.610;12.638;2022-11-11T08:54:53;97155.44;;;11.10;66.85
71392;BME280;59205;50.610;12.638;2022-11-11T08:57:18;97158.56;;;11.25;66.05
71392;BME280;59205;50.610;12.638;2022-11-11T08:59:43;97161.97;;;11.29;66.17
71392;BME280;59205;50.610;12.638;2022-11-11T09:02:13;97170.69;;;11.36;66.57
71392;BME280;59205;50.610;12.638;2022-11-11T09:04:39;97181.13;;;11.54;65.18
71392;BME280;59205;50.610;12.638;2022-11-11T09:07:06;97181.38;;;11.75;64.76
71392;BME280;59205;50.610;12.638;2022-11-11T09:09:32;97189.84;;;11.77;64.29
71392;BME280;59205;50.610;12.638;2022-11-11T09:11:57;97187.91;;;12.06;63.10
71392;BME280;59205;50.610;12.638;2022-11-11T09:14:23;97186.56;;;12.26;62.96
71392;BME280;59205;50.610;12.638;2022-11-11T09:16:49;97185.56;;;12.61;61.49
71392;BME280;59205;50.610;12.638;2022-11-11T09:19:15;97195.81;;;12.82;60.50
71392;BME280;59205;50.610;12.638;2022-11-11T09:21:40;97197.22;;;12.87;60.40
71392;BME280;59205;50.610;12.638;2022-11-11T09:24:06;97196.44;;;12.61;60.79
71392;BME280;59205;50.610;12.638;2022-11-11T09:26:31;97198.28;;;12.52;61.01
71392;BME280;59205;50.610;12.638;2022-11-11T09:28:57;97193.41;;;12.59;60.88
71392;BME280;59205;50.610;12.638;2022-11-11T09:31:22;97195.41;;;12.43;62.88
71392;BME280;59205;50.610;12.638;2022-11-11T09:33:49;97201.53;;;12.47;62.53
71392;BME280;59205;50.610;12.638;2022-11-11T09:36:14;97196.81;;;12.35;62.83
71392;BME280;59205;50.610;12.638;2022-11-11T09:38:40;97198.50;;;12.45;62.58
71392;BME280;59205;50.610;12.638;2022-11-11T09:41:17;97194.81;;;12.64;61.94
71392;BME280;59205;50.610;12.638;2022-11-11T09:43:55;97192.75;;;12.55;61.66
71392;BME280;59205;50.610;12.638;2022-11-11T09:46:53;97199.50;;;12.63;60.87
71392;BME280;59205;50.610;12.638;2022-11-11T09:49:45;97198.63;;;12.66;61.69
71392;BME280;59205;50.610;12.638;2022-11-11T09:52:19;97191.13;;;12.70;60.86
71392;BME280;59205;50.610;12.638;2022-11-11T09:55:00;97192.75;;;12.68;61.59
71392;BME280;59205;50.610;12.638;2022-11-11T09:57:43;97204.91;;;12.51;61.19
71392;BME280;59205;50.610;12.638;2022-11-11T10:00:22;97185.66;;;12.58;61.65
71392;BME280;59205;50.610;12.638;2022-11-11T10:03:16;97180.00;;;12.65;61.86
71392;BME280;59205;50.610;12.638;2022-11-11T10:05:46;97176.19;;;12.50;62.79
71392;BME280;59205;50.610;12.638;2022-11-11T10:08:24;97168.38;;;12.64;61.59
71392;BME280;59205;50.610;12.638;2022-11-11T10:10:53;97163.38;;;12.75;61.50
71392;BME280;59205;50.610;12.638;2022-11-11T10:13:23;97161.53;;;12.72;61.42
71392;BME280;59205;50.610;12.638;2022-11-11T10:21:22;97162.63;;;12.75;57.24
71392;BME280;59205;50.610;12.638;2022-11-11T10:23:54;97168.72;;;12.91;57.21
71392;BME280;59205;50.610;12.638;2022-11-11T10:28:54;97173.28;;;12.82;56.69
71392;BME280;59205;50.610;12.638;2022-11-11T10:31:21;97171.28;;;12.98;56.65
71392;BME280;59205;50.610;12.638;2022-11-11T10:34:09;97164.28;;;13.10;56.83
71392;BME280;59205;50.610;12.638;2022-11-11T10:36:52;97175.59;;;13.79;55.49
71392;BME280;59205;50.610;12.638;2022-11-11T10:39:40;97176.41;;;14.44;52.87
71392;BME280;59205;50.610;12.638;2022-11-11T10:42:17;97182.00;;;14.19;54.85
71392;BME280;59205;50.610;12.638;2022-11-11T10:44:43;97178.09;;;14.08;55.38
71392;BME280;59205;50.610;12.638;2022-11-11T10:50:02;97180.19;;;13.70;55.90
71392;BME280;59205;50.610;12.638;2022-11-11T10:52:35;97179.09;;;14.01;55.73
71392;BME280;59205;50.610;12.638;2022-11-11T10:55:30;97178.16;;;13.95;54.57
71392;BME280;59205;50.610;12.638;2022-11-11T10:57:57;97174.31;;;14.48;53.67
71392;BME280;59205;50.610;12.638;2022-11-11T11:00:26;97180.84;;;14.51;53.67
71392;BME280;59205;50.610;12.638;2022-11-11T11:08:14;97190.41;;;15.16;51.52
71392;BME280;59205;50.610;12.638;2022-11-11T11:10:51;97183.75;;;14.56;52.60
71392;BME280;59205;50.610;12.638;2022-11-11T11:13:35;97188.63;;;15.61;50.63
71392;BME280;59205;50.610;12.638;2022-11-11T11:16:09;97173.91;;;16.22;48.01
71392;BME280;59205;50.610;12.638;2022-11-11T11:18:37;97184.19;;;16.81;47.63
71392;BME280;59205;50.610;12.638;2022-11-11T11:21:05;97187.16;;;17.01;45.76
71392;BME280;59205;50.610;12.638;2022-11-11T11:26:01;97182.53;;;17.16;46.34
71392;BME280;59205;50.610;12.638;2022-11-11T11:28:28;97181.25;;;16.93;45.74
71392;BME280;59205;50.610;12.638;2022-11-11T11:30:59;97178.06;;;16.95;45.85
71392;BME280;59205;50.610;12.638;2022-11-11T11:33:25;97174.84;;;16.37;47.70
71392;BME280;59205;50.610;12.638;2022-11-11T11:35:50;97183.75;;;15.17;47.46
71392;BME280;59205;50.610;12.638;2022-11-11T11:38:16;97175.53;;;15.08;48.50
71392;BME280;59205;50.610;12.638;2022-11-11T11:40:56;97166.53;;;15.38;47.96
71392;BME280;59205;50.610;12.638;2022-11-11T11:43:35;97163.69;;;14.72;49.41
71392;BME280;59205;50.610;12.638;2022-11-11T11:46:15;97164.41;;;14.63;50.21
71392;BME280;59205;50.610;12.638;2022-11-11T11:56:37;97164.75;;;15.44;47.82
71392;BME280;59205;50.610;12.638;2022-11-11T12:01:59;97164.78;;;15.98;47.17
71392;BME280;59205;50.610;12.638;2022-11-11T12:05:02;97172.00;;;15.38;47.56
71392;BME280;59205;50.610;12.638;2022-11-11T12:10:25;97166.63;;;16.19;46.32
71392;BME280;59205;50.610;12.638;2022-11-11T12:21:17;97166.44;;;15.59;47.61
71392;BME280;59205;50.610;12.638;2022-11-11T12:25:05;97174.84;;;16.37;47.37
71392;BME280;59205;50.610;12.638;2022-11-11T12:43:17;97156.91;;;16.00;51.56
71392;BME280;59205;50.610;12.638;2022-11-11T12:45:52;97148.09;;;15.87;49.90
71392;BME280;59205;50.610;12.638;2022-11-11T12:51:14;97150.22;;;15.92;49.52
71392;BME280;59205;50.610;12.638;2022-11-11T12:56:24;97148.09;;;15.87;51.14
71392;BME280;59205;50.610;12.638;2022-11-11T13:10:19;97147.41;;;15.38;51.91
71392;BME280;59205;50.610;12.638;2022-11-11T13:15:24;97133.50;;;15.72;50.92
71392;BME280;59205;50.610;12.638;2022-11-11T13:17:50;97140.91;;;15.44;51.38
71392;BME280;59205;50.610;12.638;2022-11-11T13:21:02;97139.84;;;15.60;50.90
71392;BME280;59205;50.610;12.638;2022-11-11T13:23:25;97128.75;;;15.37;50.56
71392;BME280;59205;50.610;12.638;2022-11-11T13:25:55;97142.75;;;15.08;51.28
71392;BME280;59205;50.610;12.638;2022-11-11T13:28:32;97135.03;;;15.16;50.78
71392;BME280;59205;50.610;12.638;2022-11-11T13:31:25;97138.75;;;14.91;51.29
71392;BME280;59205;50.610;12.638;2022-11-11T13:33:57;97130.56;;;14.61;53.07
71392;BME280;59205;50.610;12.638;2022-11-11T13:36:28;97139.84;;;14.63;52.31
71392;BME280;59205;50.610;12.638;2022-11-11T13:39:00;97134.28;;;14.24;53.45
71392;BME280;59205;50.610;12.638;2022-11-11T13:41:27;97138.41;;;14.07;53.71
71392;BME280;59205;50.610;12.638;2022-11-11T13:43:56;97128.56;;;13.88;53.79
71392;BME280;59205;50.610;12.638;2022-11-11T13:46:39;97123.25;;;13.84;53.96
71392;BME280;59205;50.610;12.638;2022-11-11T13:49:22;97131.56;;;13.68;55.33
71392;BME280;59205;50.610;12.638;2022-11-11T13:52:09;97129.38;;;13.42;55.11
71392;BME280;59205;50.610;12.638;2022-11-11T13:54:49;97127.50;;;13.52;54.52
71392;BME280;59205;50.610;12.638;2022-11-11T13:57:20;97130.91;;;13.43;56.29
71392;BME280;59205;50.610;12.638;2022-11-11T13:59:58;97126.22;;;13.44;55.30
71392;BME280;59205;50.610;12.638;2022-11-11T14:02:28;97122.22;;;13.36;56.12
71392;BME280;59205;50.610;12.638;2022-11-11T14:12:53;97114.41;;;12.88;58.09
71392;BME280;59205;50.610;12.638;2022-11-11T14:15:38;97120.88;;;12.94;57.91
71392;BME280;59205;50.610;12.638;2022-11-11T14:20:42;97121.25;;;12.80;57.98
71392;BME280;59205;50.610;12.638;2022-11-11T14:28:33;97126.16;;;12.60;58.41
71392;BME280;59205;50.610;12.638;2022-11-11T14:33:50;97135.97;;;12.57;58.78
71392;BME280;59205;50.610;12.638;2022-11-11T14:39:31;97139.19;;;12.40;57.94
71392;BME280;59205;50.610;12.638;2022-11-11T14:42:03;97139.81;;;12.31;57.99
71392;BME280;59205;50.610;12.638;2022-11-11T14:49:45;97140.88;;;12.09;58.08
71392;BME280;59205;50.610;12.638;2022-11-11T14:52:46;97142.19;;;12.17;58.28
71392;BME280;59205;50.610;12.638;2022-11-11T14:55:24;97143.44;;;12.00;58.32
71392;BME280;59205;50.610;12.638;2022-11-11T15:00:26;97143.34;;;11.75;59.22
71392;BME280;59205;50.610;12.638;2022-11-11T15:03:02;97144.72;;;11.67;59.39
71392;BME280;59205;50.610;12.638;2022-11-11T15:08:37;97145.47;;;11.68;57.84
71392;BME280;59205;50.610;12.638;2022-11-11T15:11:16;97157.84;;;11.69;57.39
71392;BME280;59205;50.610;12.638;2022-11-11T15:22:23;97166.81;;;11.21;58.20
71392;BME280;59205;50.610;12.638;2022-11-11T15:25:01;97155.09;;;11.24;58.23
71392;BME280;59205;50.610;12.638;2022-11-11T15:30:22;97157.31;;;10.97;59.14